Aviation Digital Data Service (ADDS)

Output produced by METARs form (0543 UTC 16 February 2019)
found at http://www.aviationweather.gov/metar/data/
 
METAR text: DBBB 160500Z 35003KT 2500 BR FEW009 26/26 Q1011 NOSIG
Conditions at: DBBB (COTONOU/CADJEHOU, BJ) observed 0500 UTC 16 February 2019
Temperature: 26.0°C (79°F)
Dewpoint: 26.0°C (79°F) [RH = 100%]
Pressure (altimeter): 29.85 inches Hg (1011.0 mb)
Winds: from the N (350 degrees) at 3 MPH (3 knots; 1.5 m/s)
Visibility: 1.55 miles (2.49 km)
Ceiling: at least 12,000 feet AGL
Clouds: few clouds at 900 feet AGL
Weather: BR  (mist)

METAR text: DBBB 160433Z 35004KT 2500 BR SCT009 26/26 Q1011 NOSIG
Conditions at: DBBB (COTONOU/CADJEHOU, BJ) observed 0433 UTC 16 February 2019
Temperature: 26.0°C (79°F)
Dewpoint: 26.0°C (79°F) [RH = 100%]
Pressure (altimeter): 29.85 inches Hg (1011.0 mb)
Winds: from the N (350 degrees) at 5 MPH (4 knots; 2.1 m/s)
Visibility: 1.55 miles (2.49 km)
Ceiling: at least 12,000 feet AGL
Clouds: scattered clouds at 900 feet AGL
Weather: BR  (mist)

METAR text: DBBB 160400Z VRB02KT 4000 BR SCT009 26/26 Q1011 NOSIG
Conditions at: DBBB (COTONOU/CADJEHOU, BJ) observed 0400 UTC 16 February 2019
Temperature: 26.0°C (79°F)
Dewpoint: 26.0°C (79°F) [RH = 100%]
Pressure (altimeter): 29.85 inches Hg (1011.0 mb)
Winds: variable direction winds at 2 MPH (2 knots; 1.0 m/s)
Visibility: 2.49 miles (4.01 km)
Ceiling: at least 12,000 feet AGL
Clouds: scattered clouds at 900 feet AGL
Weather: BR  (mist)

METAR text: DBBB 160200Z 30002KT 4000 BR FEW010 26/26 Q1011 NOSIG
Conditions at: DBBB (COTONOU/CADJEHOU, BJ) observed 0200 UTC 16 February 2019
Temperature: 26.0°C (79°F)
Dewpoint: 26.0°C (79°F) [RH = 100%]
Pressure (altimeter): 29.85 inches Hg (1011.0 mb)
Winds: from the WNW (300 degrees) at 2 MPH (2 knots; 1.0 m/s)
Visibility: 2.49 miles (4.01 km)
Ceiling: at least 12,000 feet AGL
Clouds: few clouds at 1000 feet AGL
Weather: BR  (mist)

METAR text: DBBB 160104Z 31002KT 4000 BR FEW010 27/26 Q1011 NOSIG
Conditions at: DBBB (COTONOU/CADJEHOU, BJ) observed 0104 UTC 16 February 2019
Temperature: 27.0°C (81°F)
Dewpoint: 26.0°C (79°F) [RH = 94%]
Pressure (altimeter): 29.85 inches Hg (1011.0 mb)
Winds: from the NW (310 degrees) at 2 MPH (2 knots; 1.0 m/s)
Visibility: 2.49 miles (4.01 km)
Ceiling: at least 12,000 feet AGL
Clouds: few clouds at 1000 feet AGL
Weather: BR  (mist)

METAR text: DBBB 160100Z 31003KT 6000 FEW011 27/26 Q1012 TEMPO 4000 BR
Conditions at: DBBB (COTONOU/CADJEHOU, BJ) observed 0100 UTC 16 February 2019
Temperature: 27.0°C (81°F)
Dewpoint: 26.0°C (79°F) [RH = 94%]
Pressure (altimeter): 29.88 inches Hg (1012.0 mb)
Winds: from the NW (310 degrees) at 3 MPH (3 knots; 1.5 m/s)
Visibility: 4 miles ( 6 km)
Ceiling: at least 12,000 feet AGL
Clouds: few clouds at 1100 feet AGL
Weather: no significant weather observed at this time

METAR text: DBBB 160000Z 00000KT 7000 FEW012 27/26 Q1012 NOSIG
Conditions at: DBBB (COTONOU/CADJEHOU, BJ) observed 0000 UTC 16 February 2019
Temperature: 27.0°C (81°F)
Dewpoint: 26.0°C (79°F) [RH = 94%]
Pressure (altimeter): 29.88 inches Hg (1012.0 mb)
Winds: calm
Visibility: 4 miles ( 7 km)
Ceiling: at least 12,000 feet AGL
Clouds: few clouds at 1200 feet AGL
Weather: no significant weather observed at this time

METAR text: DBBB 152300Z 23003KT 7000 FEW012 27/26 Q1012 NOSIG
Conditions at: DBBB (COTONOU/CADJEHOU, BJ) observed 2300 UTC 15 February 2019
Temperature: 27.0°C (81°F)
Dewpoint: 26.0°C (79°F) [RH = 94%]
Pressure (altimeter): 29.88 inches Hg (1012.0 mb)
Winds: from the SW (230 degrees) at 3 MPH (3 knots; 1.5 m/s)
Visibility: 4 miles ( 7 km)
Ceiling: at least 12,000 feet AGL
Clouds: few clouds at 1200 feet AGL
Weather: no significant weather observed at this time

METAR text: DBBB 152200Z 19004KT 7000 FEW012 28/26 Q1012 NOSIG
Conditions at: DBBB (COTONOU/CADJEHOU, BJ) observed 2200 UTC 15 February 2019
Temperature: 28.0°C (82°F)
Dewpoint: 26.0°C (79°F) [RH = 89%]
Pressure (altimeter): 29.88 inches Hg (1012.0 mb)
Winds: from the S (190 degrees) at 5 MPH (4 knots; 2.1 m/s)
Visibility: 4 miles ( 7 km)
Ceiling: at least 12,000 feet AGL
Clouds: few clouds at 1200 feet AGL
Weather: no significant weather observed at this time

METAR text: DBBB 152100Z 19004KT 7000 FEW012 28/26 Q1012 NOSIG
Conditions at: DBBB (COTONOU/CADJEHOU, BJ) observed 2100 UTC 15 February 2019
Temperature: 28.0°C (82°F)
Dewpoint: 26.0°C (79°F) [RH = 89%]
Pressure (altimeter): 29.88 inches Hg (1012.0 mb)
Winds: from the S (190 degrees) at 5 MPH (4 knots; 2.1 m/s)
Visibility: 4 miles ( 7 km)
Ceiling: at least 12,000 feet AGL
Clouds: few clouds at 1200 feet AGL
Weather: no significant weather observed at this time

METAR text: DBBB 152000Z 17004KT 140V200 8000 FEW012 28/26 Q1011 NOSIG
Conditions at: DBBB (COTONOU/CADJEHOU, BJ) observed 2000 UTC 15 February 2019
Temperature: 28.0°C (82°F)
Dewpoint: 26.0°C (79°F) [RH = 89%]
Pressure (altimeter): 29.85 inches Hg (1011.0 mb)
Winds: from the S (170 degrees) at 5 MPH (4 knots; 2.1 m/s)
Visibility: 5 miles ( 8 km)
Ceiling: at least 12,000 feet AGL
Clouds: few clouds at 1200 feet AGL
Weather: no significant weather observed at this time

METAR text: DBBB 151900Z 16004KT 8000 FEW012 29/27 Q1011 NOSIG
Conditions at: DBBB (COTONOU/CADJEHOU, BJ) observed 1900 UTC 15 February 2019
Temperature: 29.0°C (84°F)
Dewpoint: 27.0°C (81°F) [RH = 89%]
Pressure (altimeter): 29.85 inches Hg (1011.0 mb)
Winds: from the SSE (160 degrees) at 5 MPH (4 knots; 2.1 m/s)
Visibility: 5 miles ( 8 km)
Ceiling: at least 12,000 feet AGL
Clouds: few clouds at 1200 feet AGL
Weather: no significant weather observed at this time

METAR text: DBBB 151800Z 17005KT 9999 FEW012 29/27 Q1010 NOSIG
Conditions at: DBBB (COTONOU/CADJEHOU, BJ) observed 1800 UTC 15 February 2019
Temperature: 29.0°C (84°F)
Dewpoint: 27.0°C (81°F) [RH = 89%]
Pressure (altimeter): 29.82 inches Hg (1010.0 mb)
Winds: from the S (170 degrees) at 6 MPH (5 knots; 2.6 m/s)
Visibility: 6 or more miles (10+ km)
Ceiling: at least 12,000 feet AGL
Clouds: few clouds at 1200 feet AGL
Weather: no significant weather observed at this time

METAR text: DBBB 151700Z 18006KT 150V210 9999 FEW012 30/27 Q1009 NOSIG
Conditions at: DBBB (COTONOU/CADJEHOU, BJ) observed 1700 UTC 15 February 2019
Temperature: 30.0°C (86°F)
Dewpoint: 27.0°C (81°F) [RH = 84%]
Pressure (altimeter): 29.79 inches Hg (1009.0 mb)
Winds: from the S (180 degrees) at 7 MPH (6 knots; 3.1 m/s)
Visibility: 6 or more miles (10+ km)
Ceiling: at least 12,000 feet AGL
Clouds: few clouds at 1200 feet AGL
Weather: no significant weather observed at this time

METAR text: DBBB 151600Z 21005KT 180V240 6000 FEW012 31/27 Q1009 NOSIG
Conditions at: DBBB (COTONOU/CADJEHOU, BJ) observed 1600 UTC 15 February 2019
Temperature: 31.0°C (88°F)
Dewpoint: 27.0°C (81°F) [RH = 79%]
Pressure (altimeter): 29.79 inches Hg (1009.0 mb)
Winds: from the SSW (210 degrees) at 6 MPH (5 knots; 2.6 m/s)
Visibility: 4 miles ( 6 km)
Ceiling: at least 12,000 feet AGL
Clouds: few clouds at 1200 feet AGL
Weather: no significant weather observed at this time

METAR text: DBBB 151500Z 21006KT 6000 FEW012 31/27 Q1010 NOSIG
Conditions at: DBBB (COTONOU/CADJEHOU, BJ) observed 1500 UTC 15 February 2019
Temperature: 31.0°C (88°F)
Dewpoint: 27.0°C (81°F) [RH = 79%]
Pressure (altimeter): 29.82 inches Hg (1010.0 mb)
Winds: from the SSW (210 degrees) at 7 MPH (6 knots; 3.1 m/s)
Visibility: 4 miles ( 6 km)
Ceiling: at least 12,000 feet AGL
Clouds: few clouds at 1200 feet AGL
Weather: no significant weather observed at this time

METAR text: DBBB 151400Z 22004KT 180V250 6000 FEW012 30/27 Q1011 NOSIG
Conditions at: DBBB (COTONOU/CADJEHOU, BJ) observed 1400 UTC 15 February 2019
Temperature: 30.0°C (86°F)
Dewpoint: 27.0°C (81°F) [RH = 84%]
Pressure (altimeter): 29.85 inches Hg (1011.0 mb)
Winds: from the SW (220 degrees) at 5 MPH (4 knots; 2.1 m/s)
Visibility: 4 miles ( 6 km)
Ceiling: at least 12,000 feet AGL
Clouds: few clouds at 1200 feet AGL
Weather: no significant weather observed at this time

METAR text: DBBB 151300Z 27004KT 220V320 6000 FEW012 30/27 Q1012 NOSIG
Conditions at: DBBB (COTONOU/CADJEHOU, BJ) observed 1300 UTC 15 February 2019
Temperature: 30.0°C (86°F)
Dewpoint: 27.0°C (81°F) [RH = 84%]
Pressure (altimeter): 29.88 inches Hg (1012.0 mb)
Winds: from the W (270 degrees) at 5 MPH (4 knots; 2.1 m/s)
Visibility: 4 miles ( 6 km)
Ceiling: at least 12,000 feet AGL
Clouds: few clouds at 1200 feet AGL
Weather: no significant weather observed at this time

METAR text: DBBB 151100Z 24005KT 7000 FEW012 28/24 Q1014 NOSIG
Conditions at: DBBB (COTONOU/CADJEHOU, BJ) observed 1100 UTC 15 February 2019
Temperature: 28.0°C (82°F)
Dewpoint: 24.0°C (75°F) [RH = 79%]
Pressure (altimeter): 29.94 inches Hg (1014.0 mb)
Winds: from the WSW (240 degrees) at 6 MPH (5 knots; 2.6 m/s)
Visibility: 4 miles ( 7 km)
Ceiling: at least 12,000 feet AGL
Clouds: few clouds at 1200 feet AGL
Weather: no significant weather observed at this time

METAR text: DBBB 151023Z 24005KT 7000 SCT012 FEW023CB 27/26 Q1015 TEMPO TS
Conditions at: DBBB (COTONOU/CADJEHOU, BJ) observed 1023 UTC 15 February 2019
Temperature: 27.0°C (81°F)
Dewpoint: 26.0°C (79°F) [RH = 94%]
Pressure (altimeter): 29.97 inches Hg (1015.0 mb)
Winds: from the WSW (240 degrees) at 6 MPH (5 knots; 2.6 m/s)
Visibility: 4 miles ( 7 km)
Ceiling: at least 12,000 feet AGL
Clouds: scattered clouds at 1200 feet AGL
few clouds at 2300 feet AGL
Weather: no significant weather observed at this time

METAR text: DBBB 151000Z 32004KT 270V010 4500 BR SCT012 FEW023CB 29/27 Q1015 TEMPO TS
Conditions at: DBBB (COTONOU/CADJEHOU, BJ) observed 1000 UTC 15 February 2019
Temperature: 29.0°C (84°F)
Dewpoint: 27.0°C (81°F) [RH = 89%]
Pressure (altimeter): 29.97 inches Hg (1015.0 mb)
Winds: from the NW (320 degrees) at 5 MPH (4 knots; 2.1 m/s)
Visibility: 2.80 miles (4.51 km)
Ceiling: at least 12,000 feet AGL
Clouds: scattered clouds at 1200 feet AGL
few clouds at 2300 feet AGL
Weather: BR  (mist)

METAR text: DBBB 150900Z 35004KT 320V030 4000 BR SCT011 FEW023CB 28/27 Q1015 TEMPO TS
Conditions at: DBBB (COTONOU/CADJEHOU, BJ) observed 0900 UTC 15 February 2019
Temperature: 28.0°C (82°F)
Dewpoint: 27.0°C (81°F) [RH = 94%]
Pressure (altimeter): 29.97 inches Hg (1015.0 mb)
Winds: from the N (350 degrees) at 5 MPH (4 knots; 2.1 m/s)
Visibility: 2.49 miles (4.01 km)
Ceiling: at least 12,000 feet AGL
Clouds: scattered clouds at 1100 feet AGL
few clouds at 2300 feet AGL
Weather: BR  (mist)

METAR text: DBBB 150838Z 35005KT 320V030 4000 BR SCT011 FEW023CB 28/27 Q1014 TEMPO TS
Conditions at: DBBB (COTONOU/CADJEHOU, BJ) observed 0838 UTC 15 February 2019
Temperature: 28.0°C (82°F)
Dewpoint: 27.0°C (81°F) [RH = 94%]
Pressure (altimeter): 29.94 inches Hg (1014.0 mb)
Winds: from the N (350 degrees) at 6 MPH (5 knots; 2.6 m/s)
Visibility: 2.49 miles (4.01 km)
Ceiling: at least 12,000 feet AGL
Clouds: scattered clouds at 1100 feet AGL
few clouds at 2300 feet AGL
Weather: BR  (mist)

METAR text: DBBB 150825Z VRB03KT 4000 TS BR SCT011 FEW023CB 28/26 Q1014 TEMPO TSRA
Conditions at: DBBB (COTONOU/CADJEHOU, BJ) observed 0825 UTC 15 February 2019
Temperature: 28.0°C (82°F)
Dewpoint: 26.0°C (79°F) [RH = 89%]
Pressure (altimeter): 29.94 inches Hg (1014.0 mb)
Winds: variable direction winds at 3 MPH (3 knots; 1.5 m/s)
Visibility: 2.49 miles (4.01 km)
Ceiling: at least 12,000 feet AGL
Clouds: scattered clouds at 1100 feet AGL
few clouds at 2300 feet AGL
Weather: TS BR  (thunderstorm, mist)

METAR text: DBBB 150800Z VRB03KT 7000 TS SCT011 FEW023CB 27/24 Q1014 RERA TEMPO 4000 TSRA
Conditions at: DBBB (COTONOU/CADJEHOU, BJ) observed 0800 UTC 15 February 2019
Temperature: 27.0°C (81°F)
Dewpoint: 24.0°C (75°F) [RH = 84%]
Pressure (altimeter): 29.94 inches Hg (1014.0 mb)
Winds: variable direction winds at 3 MPH (3 knots; 1.5 m/s)
Visibility: 4 miles ( 7 km)
Ceiling: at least 12,000 feet AGL
Clouds: scattered clouds at 1100 feet AGL
few clouds at 2300 feet AGL
Weather: TS  (thunderstorm)

METAR text: DBBB 150730Z 29004KT 230V330 7000 TS SCT011 FEW023CB 26/23 Q1013 RERA TEMPO 4000 TSRA
Conditions at: DBBB (COTONOU/CADJEHOU, BJ) observed 0730 UTC 15 February 2019
Temperature: 26.0°C (79°F)
Dewpoint: 23.0°C (73°F) [RH = 84%]
Pressure (altimeter): 29.91 inches Hg (1013.0 mb)
Winds: from the WNW (290 degrees) at 5 MPH (4 knots; 2.1 m/s)
Visibility: 4 miles ( 7 km)
Ceiling: at least 12,000 feet AGL
Clouds: scattered clouds at 1100 feet AGL
few clouds at 2300 feet AGL
Weather: TS  (thunderstorm)

METAR text: DBBB 150726Z 29004KT 230V330 7000 TS SCT011 FEW023CB 26/23 Q1013 RERA TEMPO 4000 TSRA
Conditions at: DBBB (COTONOU/CADJEHOU, BJ) observed 0726 UTC 15 February 2019
Temperature: 26.0°C (79°F)
Dewpoint: 23.0°C (73°F) [RH = 84%]
Pressure (altimeter): 29.91 inches Hg (1013.0 mb)
Winds: from the WNW (290 degrees) at 5 MPH (4 knots; 2.1 m/s)
Visibility: 4 miles ( 7 km)
Ceiling: at least 12,000 feet AGL
Clouds: scattered clouds at 1100 feet AGL
few clouds at 2300 feet AGL
Weather: TS  (thunderstorm)

METAR text: DBBB 150711Z 24011KT 190V300 4500 TSRA SCT011 FEW023CB 25/24 Q1013 TEMPO 1700 +TSRA
Conditions at: DBBB (COTONOU/CADJEHOU, BJ) observed 0711 UTC 15 February 2019
Temperature: 25.0°C (77°F)
Dewpoint: 24.0°C (75°F) [RH = 94%]
Pressure (altimeter): 29.91 inches Hg (1013.0 mb)
Winds: from the WSW (240 degrees) at 13 MPH (11 knots; 5.7 m/s)
Visibility: 2.80 miles (4.51 km)
Ceiling: at least 12,000 feet AGL
Clouds: scattered clouds at 1100 feet AGL
few clouds at 2300 feet AGL
Weather: TSRA  (rain associated with thunderstorm(s))

METAR text: DBBB 150700Z 22011KT 1400 R24/1400 +TSRA BNK011 FEW023CB 27/24 Q1014 TEMPO 0700 +TSRA
Conditions at: DBBB (COTONOU/CADJEHOU, BJ) observed 0700 UTC 15 February 2019
Temperature: 27.0°C (81°F)
Dewpoint: 24.0°C (75°F) [RH = 84%]
Pressure (altimeter): 29.94 inches Hg (1014.0 mb)
Winds: from the SW (220 degrees) at 13 MPH (11 knots; 5.7 m/s)
Visibility: 0.87 miles (1.40 km)
Ceiling: at least 12,000 feet AGL
Clouds: few clouds at 2300 feet AGL
Weather: +TSRA  (heavy rain associated with thunderstorm(s))

METAR text: DBBB 150653Z VRB04KT 2200 TSRA BNK011 FEW023CB 27/24 Q1014 TEMPO 800 +TSRA
Conditions at: DBBB (COTONOU/CADJEHOU, BJ) observed 0653 UTC 15 February 2019
Temperature: 27.0°C (81°F)
Dewpoint: 24.0°C (75°F) [RH = 84%]
Pressure (altimeter): 29.94 inches Hg (1014.0 mb)
Winds: variable direction winds at 5 MPH (4 knots; 2.1 m/s)
Visibility: 1.37 miles (2.20 km)
Ceiling: at least 12,000 feet AGL
Clouds: few clouds at 2300 feet AGL
Weather: TSRA  (rain associated with thunderstorm(s))

METAR text: DBBB 150632Z VRB03KT 4000 TSRA BR SCT011 FEW023CB 28/27 Q1013 TEMPO 2700 +TSRA
Conditions at: DBBB (COTONOU/CADJEHOU, BJ) observed 0632 UTC 15 February 2019
Temperature: 28.0°C (82°F)
Dewpoint: 27.0°C (81°F) [RH = 94%]
Pressure (altimeter): 29.91 inches Hg (1013.0 mb)
Winds: variable direction winds at 3 MPH (3 knots; 1.5 m/s)
Visibility: 2.49 miles (4.01 km)
Ceiling: at least 12,000 feet AGL
Clouds: scattered clouds at 1100 feet AGL
few clouds at 2300 feet AGL
Weather: TSRA BR  (rain associated with thunderstorm(s), mist)

METAR text: DBBB 150620Z VRB02KT 4000 TS BR SCT011 FEW023CB 28/27 Q1013 TEMPO TSRA BKN011 FEW023CB
Conditions at: DBBB (COTONOU/CADJEHOU, BJ) observed 0620 UTC 15 February 2019
Temperature: 28.0°C (82°F)
Dewpoint: 27.0°C (81°F) [RH = 94%]
Pressure (altimeter): 29.91 inches Hg (1013.0 mb)
Winds: variable direction winds at 2 MPH (2 knots; 1.0 m/s)
Visibility: 2.49 miles (4.01 km)
Ceiling: at least 12,000 feet AGL
Clouds: scattered clouds at 1100 feet AGL
few clouds at 2300 feet AGL
Weather: TS BR  (thunderstorm, mist)

METAR text: DBBB 150600Z VRB03KT 6000 TS SCT011 FEW023CB 28/27 Q1013 TEMPO 4000 TSRA BKN011 FEW023CB
Conditions at: DBBB (COTONOU/CADJEHOU, BJ) observed 0600 UTC 15 February 2019
Temperature: 28.0°C (82°F)
Dewpoint: 27.0°C (81°F) [RH = 94%]
Pressure (altimeter): 29.91 inches Hg (1013.0 mb)
Winds: variable direction winds at 3 MPH (3 knots; 1.5 m/s)
Visibility: 4 miles ( 6 km)
Ceiling: at least 12,000 feet AGL
Clouds: scattered clouds at 1100 feet AGL
few clouds at 2300 feet AGL
Weather: TS  (thunderstorm)

METAR text: DBBB 150552Z 33003KT 300V360 6000 TS SCT011 FEW023CB 28/27 Q1013 TEMPO 4000 TSRA BKN011 FEW023CB
Conditions at: DBBB (COTONOU/CADJEHOU, BJ) observed 0552 UTC 15 February 2019
Temperature: 28.0°C (82°F)
Dewpoint: 27.0°C (81°F) [RH = 94%]
Pressure (altimeter): 29.91 inches Hg (1013.0 mb)
Winds: from the NNW (330 degrees) at 3 MPH (3 knots; 1.5 m/s)
Visibility: 4 miles ( 6 km)
Ceiling: at least 12,000 feet AGL
Clouds: scattered clouds at 1100 feet AGL
few clouds at 2300 feet AGL
Weather: TS  (thunderstorm)

METAR text: DBBB 150551Z 33003KT 300V360 6000 TS SCT011 FEW023CB 28/27 Q1013 TEMPO 4000 TSRA BKN011 FEW023CB
Conditions at: DBBB (COTONOU/CADJEHOU, BJ) observed 0551 UTC 15 February 2019
Temperature: 28.0°C (82°F)
Dewpoint: 27.0°C (81°F) [RH = 94%]
Pressure (altimeter): 29.91 inches Hg (1013.0 mb)
Winds: from the NNW (330 degrees) at 3 MPH (3 knots; 1.5 m/s)
Visibility: 4 miles ( 6 km)
Ceiling: at least 12,000 feet AGL
Clouds: scattered clouds at 1100 feet AGL
few clouds at 2300 feet AGL
Weather: TS  (thunderstorm)

METAR text: DBBB 150500Z 26005KT 230V310 7000 FEW011 29/26 Q1012 NOSIG
Conditions at: DBBB (COTONOU/CADJEHOU, BJ) observed 0500 UTC 15 February 2019
Temperature: 29.0°C (84°F)
Dewpoint: 26.0°C (79°F) [RH = 84%]
Pressure (altimeter): 29.88 inches Hg (1012.0 mb)
Winds: from the W (260 degrees) at 6 MPH (5 knots; 2.6 m/s)
Visibility: 4 miles ( 7 km)
Ceiling: at least 12,000 feet AGL
Clouds: few clouds at 1100 feet AGL
Weather: no significant weather observed at this time

METAR text: DBBB 150400Z 24009KT 7000 FEW011 29/26 Q1012 NOSIG
Conditions at: DBBB (COTONOU/CADJEHOU, BJ) observed 0400 UTC 15 February 2019
Temperature: 29.0°C (84°F)
Dewpoint: 26.0°C (79°F) [RH = 84%]
Pressure (altimeter): 29.88 inches Hg (1012.0 mb)
Winds: from the WSW (240 degrees) at 10 MPH (9 knots; 4.6 m/s)
Visibility: 4 miles ( 7 km)
Ceiling: at least 12,000 feet AGL
Clouds: few clouds at 1100 feet AGL
Weather: no significant weather observed at this time

METAR text: DBBB 150300Z 23009KT 7000 FEW011 29/27 Q1012 NOSIG
Conditions at: DBBB (COTONOU/CADJEHOU, BJ) observed 0300 UTC 15 February 2019
Temperature: 29.0°C (84°F)
Dewpoint: 27.0°C (81°F) [RH = 89%]
Pressure (altimeter): 29.88 inches Hg (1012.0 mb)
Winds: from the SW (230 degrees) at 10 MPH (9 knots; 4.6 m/s)
Visibility: 4 miles ( 7 km)
Ceiling: at least 12,000 feet AGL
Clouds: few clouds at 1100 feet AGL
Weather: no significant weather observed at this time

METAR text: DBBB 150200Z 23008KT 7000 FEW011 29/27 Q1012 NOSIG
Conditions at: DBBB (COTONOU/CADJEHOU, BJ) observed 0200 UTC 15 February 2019
Temperature: 29.0°C (84°F)
Dewpoint: 27.0°C (81°F) [RH = 89%]
Pressure (altimeter): 29.88 inches Hg (1012.0 mb)
Winds: from the SW (230 degrees) at 9 MPH (8 knots; 4.1 m/s)
Visibility: 4 miles ( 7 km)
Ceiling: at least 12,000 feet AGL
Clouds: few clouds at 1100 feet AGL
Weather: no significant weather observed at this time

METAR text: DBBB 150100Z 22007KT 7000 FEW011 29/27 Q1012 NOSIG
Conditions at: DBBB (COTONOU/CADJEHOU, BJ) observed 0100 UTC 15 February 2019
Temperature: 29.0°C (84°F)
Dewpoint: 27.0°C (81°F) [RH = 89%]
Pressure (altimeter): 29.88 inches Hg (1012.0 mb)
Winds: from the SW (220 degrees) at 8 MPH (7 knots; 3.6 m/s)
Visibility: 4 miles ( 7 km)
Ceiling: at least 12,000 feet AGL
Clouds: few clouds at 1100 feet AGL
Weather: no significant weather observed at this time

METAR text: DBBB 142330Z 19007KT 7000 FEW011 29/27 Q1013 NOSIG
Conditions at: DBBB (COTONOU/CADJEHOU, BJ) observed 2330 UTC 14 February 2019
Temperature: 29.0°C (84°F)
Dewpoint: 27.0°C (81°F) [RH = 89%]
Pressure (altimeter): 29.91 inches Hg (1013.0 mb)
Winds: from the S (190 degrees) at 8 MPH (7 knots; 3.6 m/s)
Visibility: 4 miles ( 7 km)
Ceiling: at least 12,000 feet AGL
Clouds: few clouds at 1100 feet AGL
Weather: no significant weather observed at this time

METAR text: DBBB 142300Z 19008KT 7000 FEW011 29/27 Q1013 NOSIG
Conditions at: DBBB (COTONOU/CADJEHOU, BJ) observed 2300 UTC 14 February 2019
Temperature: 29.0°C (84°F)
Dewpoint: 27.0°C (81°F) [RH = 89%]
Pressure (altimeter): 29.91 inches Hg (1013.0 mb)
Winds: from the S (190 degrees) at 9 MPH (8 knots; 4.1 m/s)
Visibility: 4 miles ( 7 km)
Ceiling: at least 12,000 feet AGL
Clouds: few clouds at 1100 feet AGL
Weather: no significant weather observed at this time

METAR text: DBBB 142200Z 21008KT 7000 FEW011 30/26 Q1013 NOSIG
Conditions at: DBBB (COTONOU/CADJEHOU, BJ) observed 2200 UTC 14 February 2019
Temperature: 30.0°C (86°F)
Dewpoint: 26.0°C (79°F) [RH = 79%]
Pressure (altimeter): 29.91 inches Hg (1013.0 mb)
Winds: from the SSW (210 degrees) at 9 MPH (8 knots; 4.1 m/s)
Visibility: 4 miles ( 7 km)
Ceiling: at least 12,000 feet AGL
Clouds: few clouds at 1100 feet AGL
Weather: no significant weather observed at this time

METAR text: DBBB 142100Z 20010KT 7000 FEW011 30/27 Q1012 NOSIG
Conditions at: DBBB (COTONOU/CADJEHOU, BJ) observed 2100 UTC 14 February 2019
Temperature: 30.0°C (86°F)
Dewpoint: 27.0°C (81°F) [RH = 84%]
Pressure (altimeter): 29.88 inches Hg (1012.0 mb)
Winds: from the SSW (200 degrees) at 12 MPH (10 knots; 5.1 m/s)
Visibility: 4 miles ( 7 km)
Ceiling: at least 12,000 feet AGL
Clouds: few clouds at 1100 feet AGL
Weather: no significant weather observed at this time

METAR text: DBBB 142000Z 20010KT 6000 FEW012 30/26 Q1011 NOSIG
Conditions at: DBBB (COTONOU/CADJEHOU, BJ) observed 2000 UTC 14 February 2019
Temperature: 30.0°C (86°F)
Dewpoint: 26.0°C (79°F) [RH = 79%]
Pressure (altimeter): 29.85 inches Hg (1011.0 mb)
Winds: from the SSW (200 degrees) at 12 MPH (10 knots; 5.1 m/s)
Visibility: 4 miles ( 6 km)
Ceiling: at least 12,000 feet AGL
Clouds: few clouds at 1200 feet AGL
Weather: no significant weather observed at this time

METAR text: DBBB 141900Z 21008KT 6000 FEW012 30/27 Q1010 TEMPO 4500 HZ
Conditions at: DBBB (COTONOU/CADJEHOU, BJ) observed 1900 UTC 14 February 2019
Temperature: 30.0°C (86°F)
Dewpoint: 27.0°C (81°F) [RH = 84%]
Pressure (altimeter): 29.82 inches Hg (1010.0 mb)
Winds: from the SSW (210 degrees) at 9 MPH (8 knots; 4.1 m/s)
Visibility: 4 miles ( 6 km)
Ceiling: at least 12,000 feet AGL
Clouds: few clouds at 1200 feet AGL
Weather: no significant weather observed at this time

METAR text: DBBB 141800Z 20008KT 6000 FEW012 30/27 Q1010 TEMPO 4500 HZ
Conditions at: DBBB (COTONOU/CADJEHOU, BJ) observed 1800 UTC 14 February 2019
Temperature: 30.0°C (86°F)
Dewpoint: 27.0°C (81°F) [RH = 84%]
Pressure (altimeter): 29.82 inches Hg (1010.0 mb)
Winds: from the SSW (200 degrees) at 9 MPH (8 knots; 4.1 m/s)
Visibility: 4 miles ( 6 km)
Ceiling: at least 12,000 feet AGL
Clouds: few clouds at 1200 feet AGL
Weather: no significant weather observed at this time

Forecast for: DBBB (COTONOU/CADJEHOU, BJ)
Text: TAF DBBB 160500Z 1606/1712 VRB02KT 2000 BR SCT012
Forecast period: 0600 to 0900 UTC 16 February 2019
Forecast type: FROM: standard forecast or significant change
Winds: variable direction winds at 2 MPH (2 knots; 1.0 m/s)
Visibility: 1.24 miles (2.00 km)
Ceiling: at least 12,000 feet AGL
Clouds: scattered clouds at 1200 feet AGL
Weather: BR  (mist)
Text: BECMG 1609/1611 02010KT 4000 HZ
Forecast period: 0900 to 1400 UTC 16 February 2019
Forecast type: BECOMING: Conditions expected to become as follows by 1100 UTC 16 February 2019
Winds: from the NNE (20 degrees) at 12 MPH (10 knots; 5.1 m/s)
Visibility: 2.49 miles (4.01 km)
Ceiling: at least 12,000 feet AGL
Clouds: scattered clouds at 1200 feet AGL
Weather: HZ  (haze)
Text: BECMG 1614/1616 22010KT 6000 NSW
Forecast period: 1400 UTC 16 February 2019 to 1200 UTC 17 February 2019
Forecast type: BECOMING: Conditions expected to become as follows by 1600 UTC 16 February 2019
Winds: from the SW (220 degrees) at 12 MPH (10 knots; 5.1 m/s)
Visibility: 4 miles (6 km)
Ceiling: at least 12,000 feet AGL
Clouds: scattered clouds at 1200 feet AGL
Weather: NSW  (no significant weather)
Text: TEMPO 1704/1709 34003KT 2000 BR
Forecast period: 0400 to 0900 UTC 17 February 2019
Forecast type: TEMPORARY: The following changes expected for less than half the time period
Winds: from the NNW (340 degrees) at 3 MPH (3 knots; 1.5 m/s)
Visibility: 1.24 miles (2.00 km)
Ceiling: unknown
Clouds: missing
Weather: BR  (mist)